sensor_id;sensor_type;location;lat;lon;timestamp;pressure;altitude;pressure_sealevel;temperature;humidity
3444;BME280;1736;52.068;6.968;2023-12-14T00:01:48;100840.63;;;5.99;100.00
3444;BME280;1736;52.068;6.968;2023-12-14T00:04:16;100855.72;;;5.97;100.00
3444;BME280;1736;52.068;6.968;2023-12-14T00:06:44;100854.22;;;5.93;100.00
3444;BME280;1736;52.068;6.968;2023-12-14T00:09:10;100858.91;;;5.88;100.00
3444;BME280;1736;52.068;6.968;2023-12-14T00:11:38;100873.09;;;5.86;100.00
3444;BME280;1736;52.068;6.968;2023-12-14T00:14:05;100869.81;;;5.82;100.00
3444;BME280;1736;52.068;6.968;2023-12-14T00:16:31;100884.84;;;5.80;100.00
3444;BME280;1736;52.068;6.968;2023-12-14T00:18:58;100885.63;;;5.82;100.00
3444;BME280;1736;52.068;6.968;2023-12-14T00:21:26;100885.53;;;5.84;100.00
3444;BME280;1736;52.068;6.968;2023-12-14T00:23:52;100898.53;;;5.71;100.00
3444;BME280;1736;52.068;6.968;2023-12-14T00:26:19;100901.47;;;5.67;100.00
3444;BME280;1736;52.068;6.968;2023-12-14T00:28:45;100907.56;;;5.67;100.00
3444;BME280;1736;52.068;6.968;2023-12-14T00:31:12;100915.38;;;5.68;100.00
3444;BME280;1736;52.068;6.968;2023-12-14T00:33:39;100929.56;;;5.66;100.00
3444;BME280;1736;52.068;6.968;2023-12-14T00:36:06;100941.03;;;5.65;100.00
3444;BME280;1736;52.068;6.968;2023-12-14T00:38:35;100952.13;;;5.70;100.00
3444;BME280;1736;52.068;6.968;2023-12-14T00:41:02;100958.53;;;5.66;100.00
3444;BME280;1736;52.068;6.968;2023-12-14T00:43:29;100964.47;;;5.70;100.00
3444;BME280;1736;52.068;6.968;2023-12-14T00:45:55;100962.09;;;5.65;100.00
3444;BME280;1736;52.068;6.968;2023-12-14T00:48:22;100967.59;;;5.76;100.00
3444;BME280;1736;52.068;6.968;2023-12-14T00:50:48;100970.56;;;5.70;100.00
3444;BME280;1736;52.068;6.968;2023-12-14T00:53:15;100971.78;;;5.64;100.00
3444;BME280;1736;52.068;6.968;2023-12-14T00:55:43;100970.31;;;5.45;100.00
3444;BME280;1736;52.068;6.968;2023-12-14T00:58:11;100985.75;;;5.51;100.00
3444;BME280;1736;52.068;6.968;2023-12-14T01:00:38;100996.09;;;5.54;100.00
3444;BME280;1736;52.068;6.968;2023-12-14T01:03:05;101000.31;;;5.42;100.00
3444;BME280;1736;52.068;6.968;2023-12-14T01:05:32;101007.34;;;5.42;100.00
3444;BME280;1736;52.068;6.968;2023-12-14T01:07:59;101016.75;;;5.46;100.00
3444;BME280;1736;52.068;6.968;2023-12-14T01:10:25;101014.72;;;5.35;100.00
3444;BME280;1736;52.068;6.968;2023-12-14T01:12:54;101022.78;;;5.32;100.00
3444;BME280;1736;52.068;6.968;2023-12-14T01:15:20;101035.38;;;5.27;100.00
3444;BME280;1736;52.068;6.968;2023-12-14T01:17:46;101039.81;;;5.27;100.00
3444;BME280;1736;52.068;6.968;2023-12-14T01:20:13;101049.63;;;5.23;100.00
3444;BME280;1736;52.068;6.968;2023-12-14T01:22:39;101047.94;;;5.22;100.00
3444;BME280;1736;52.068;6.968;2023-12-14T01:25:07;101061.00;;;5.39;100.00
3444;BME280;1736;52.068;6.968;2023-12-14T01:27:34;101059.13;;;5.26;100.00
3444;BME280;1736;52.068;6.968;2023-12-14T01:30:02;101072.66;;;5.20;100.00
3444;BME280;1736;52.068;6.968;2023-12-14T01:32:28;101065.06;;;5.14;100.00
3444;BME280;1736;52.068;6.968;2023-12-14T01:34:55;101072.72;;;5.18;100.00
3444;BME280;1736;52.068;6.968;2023-12-14T01:37:22;101077.41;;;5.13;100.00
3444;BME280;1736;52.068;6.968;2023-12-14T01:39:48;101086.91;;;5.16;100.00
3444;BME280;1736;52.068;6.968;2023-12-14T01:42:15;101084.59;;;5.10;100.00
3444;BME280;1736;52.068;6.968;2023-12-14T01:44:42;101094.28;;;5.25;100.00
3444;BME280;1736;52.068;6.968;2023-12-14T01:47:10;101097.00;;;5.08;100.00
3444;BME280;1736;52.068;6.968;2023-12-14T01:49:37;101101.75;;;5.17;100.00
3444;BME280;1736;52.068;6.968;2023-12-14T01:52:05;101109.56;;;5.18;100.00
3444;BME280;1736;52.068;6.968;2023-12-14T01:54:31;101113.38;;;5.28;100.00
3444;BME280;1736;52.068;6.968;2023-12-14T01:56:58;101115.16;;;5.28;100.00
3444;BME280;1736;52.068;6.968;2023-12-14T01:59:25;101124.00;;;5.27;100.00
3444;BME280;1736;52.068;6.968;2023-12-14T02:01:53;101125.34;;;5.34;100.00
3444;BME280;1736;52.068;6.968;2023-12-14T02:04:23;101138.84;;;5.28;100.00
3444;BME280;1736;52.068;6.968;2023-12-14T02:06:51;101136.38;;;5.25;100.00
3444;BME280;1736;52.068;6.968;2023-12-14T02:09:17;101138.56;;;5.17;100.00
3444;BME280;1736;52.068;6.968;2023-12-14T02:11:44;101144.44;;;5.22;100.00
3444;BME280;1736;52.068;6.968;2023-12-14T02:14:11;101148.78;;;5.23;100.00
3444;BME280;1736;52.068;6.968;2023-12-14T02:16:38;101147.69;;;5.27;100.00
3444;BME280;1736;52.068;6.968;2023-12-14T02:19:05;101149.03;;;5.18;100.00
3444;BME280;1736;52.068;6.968;2023-12-14T02:21:34;101139.69;;;5.13;100.00
3444;BME280;1736;52.068;6.968;2023-12-14T02:24:02;101138.56;;;5.17;100.00
3444;BME280;1736;52.068;6.968;2023-12-14T02:26:29;101148.06;;;5.04;100.00
3444;BME280;1736;52.068;6.968;2023-12-14T02:28:56;101146.38;;;5.03;100.00
3444;BME280;1736;52.068;6.968;2023-12-14T02:31:23;101151.63;;;5.03;100.00
3444;BME280;1736;52.068;6.968;2023-12-14T02:33:49;101138.72;;;4.98;100.00
3444;BME280;1736;52.068;6.968;2023-12-14T02:36:16;101160.13;;;5.08;100.00
3444;BME280;1736;52.068;6.968;2023-12-14T02:38:43;101157.47;;;4.92;100.00
3444;BME280;1736;52.068;6.968;2023-12-14T02:41:12;101160.44;;;5.02;100.00
3444;BME280;1736;52.068;6.968;2023-12-14T02:43:39;101167.34;;;5.04;100.00
3444;BME280;1736;52.068;6.968;2023-12-14T02:46:06;101158.44;;;5.07;100.00
3444;BME280;1736;52.068;6.968;2023-12-14T02:48:32;101163.84;;;5.04;100.00
3444;BME280;1736;52.068;6.968;2023-12-14T02:50:59;101172.94;;;5.14;100.00
3444;BME280;1736;52.068;6.968;2023-12-14T02:53:26;101175.56;;;5.14;100.00
3444;BME280;1736;52.068;6.968;2023-12-14T02:55:53;101181.84;;;5.11;100.00
3444;BME280;1736;52.068;6.968;2023-12-14T02:58:22;101180.31;;;5.07;100.00
3444;BME280;1736;52.068;6.968;2023-12-14T03:00:49;101176.84;;;5.07;100.00
3444;BME280;1736;52.068;6.968;2023-12-14T03:03:15;101172.34;;;5.09;100.00
3444;BME280;1736;52.068;6.968;2023-12-14T03:05:42;101174.44;;;5.02;100.00
3444;BME280;1736;52.068;6.968;2023-12-14T03:08:09;101185.03;;;5.01;100.00
3444;BME280;1736;52.068;6.968;2023-12-14T03:10:35;101185.03;;;5.01;100.00
3444;BME280;1736;52.068;6.968;2023-12-14T03:13:02;101179.63;;;5.04;100.00
3444;BME280;1736;52.068;6.968;2023-12-14T03:15:30;101170.81;;;5.05;100.00
3444;BME280;1736;52.068;6.968;2023-12-14T03:17:57;101181.41;;;5.03;100.00
3444;BME280;1736;52.068;6.968;2023-12-14T03:20:24;101183.00;;;5.06;100.00
3444;BME280;1736;52.068;6.968;2023-12-14T03:22:51;101189.56;;;4.99;100.00
3444;BME280;1736;52.068;6.968;2023-12-14T03:25:17;101194.72;;;5.00;100.00
3444;BME280;1736;52.068;6.968;2023-12-14T03:27:44;101197.25;;;5.02;100.00
3444;BME280;1736;52.068;6.968;2023-12-14T03:30:11;101202.28;;;5.06;100.00
3444;BME280;1736;52.068;6.968;2023-12-14T03:32:40;101208.97;;;4.96;100.00
3444;BME280;1736;52.068;6.968;2023-12-14T03:35:07;101209.66;;;5.00;100.00
3444;BME280;1736;52.068;6.968;2023-12-14T03:37:34;101216.44;;;5.04;100.00
3444;BME280;1736;52.068;6.968;2023-12-14T03:40:01;101228.06;;;5.00;100.00
3444;BME280;1736;52.068;6.968;2023-12-14T03:42:29;101236.84;;;5.16;100.00
3444;BME280;1736;52.068;6.968;2023-12-14T03:44:55;101229.16;;;4.96;100.00
3444;BME280;1736;52.068;6.968;2023-12-14T03:47:22;101220.75;;;4.89;100.00
3444;BME280;1736;52.068;6.968;2023-12-14T03:49:51;101220.41;;;4.95;100.00
3444;BME280;1736;52.068;6.968;2023-12-14T03:52:17;101229.59;;;5.04;100.00
3444;BME280;1736;52.068;6.968;2023-12-14T03:54:44;101217.69;;;4.97;100.00
3444;BME280;1736;52.068;6.968;2023-12-14T03:57:11;101248.16;;;5.01;100.00
3444;BME280;1736;52.068;6.968;2023-12-14T03:59:39;101244.44;;;5.05;100.00
3444;BME280;1736;52.068;6.968;2023-12-14T04:02:06;101241.50;;;4.94;100.00
3444;BME280;1736;52.068;6.968;2023-12-14T04:04:33;101264.88;;;5.00;100.00
3444;BME280;1736;52.068;6.968;2023-12-14T04:07:01;101276.16;;;5.02;100.00
3444;BME280;1736;52.068;6.968;2023-12-14T04:09:28;101271.09;;;4.99;100.00
3444;BME280;1736;52.068;6.968;2023-12-14T04:11:55;101269.47;;;4.96;100.00
3444;BME280;1736;52.068;6.968;2023-12-14T04:14:23;101271.84;;;5.01;100.00
3444;BME280;1736;52.068;6.968;2023-12-14T04:16:50;101271.91;;;4.99;100.00
3444;BME280;1736;52.068;6.968;2023-12-14T04:19:17;101266.28;;;4.90;100.00
3444;BME280;1736;52.068;6.968;2023-12-14T04:21:43;101265.50;;;5.05;100.00
3444;BME280;1736;52.068;6.968;2023-12-14T04:24:11;101269.38;;;4.98;100.00
3444;BME280;1736;52.068;6.968;2023-12-14T04:26:38;101265.75;;;5.00;100.00
3444;BME280;1736;52.068;6.968;2023-12-14T04:29:05;101268.19;;;5.03;100.00
3444;BME280;1736;52.068;6.968;2023-12-14T04:31:34;101284.06;;;5.02;100.00
3444;BME280;1736;52.068;6.968;2023-12-14T04:34:01;101282.44;;;4.99;100.00
3444;BME280;1736;52.068;6.968;2023-12-14T04:36:27;101275.09;;;4.89;100.00
3444;BME280;1736;52.068;6.968;2023-12-14T04:38:54;101282.81;;;5.09;100.00
3444;BME280;1736;52.068;6.968;2023-12-14T04:41:22;101282.81;;;5.09;100.00
3444;BME280;1736;52.068;6.968;2023-12-14T04:43:49;101289.25;;;5.03;100.00
3444;BME280;1736;52.068;6.968;2023-12-14T04:46:16;101282.38;;;5.01;100.00
3444;BME280;1736;52.068;6.968;2023-12-14T04:48:43;101282.81;;;5.09;100.00
3444;BME280;1736;52.068;6.968;2023-12-14T04:51:13;101286.47;;;5.06;100.00
3444;BME280;1736;52.068;6.968;2023-12-14T04:53:40;101284.69;;;5.07;100.00
3444;BME280;1736;52.068;6.968;2023-12-14T04:56:10;101288.00;;;5.10;100.00
3444;BME280;1736;52.068;6.968;2023-12-14T04:58:39;101277.88;;;5.03;100.00
3444;BME280;1736;52.068;6.968;2023-12-14T05:01:06;101275.94;;;5.06;100.00
3444;BME280;1736;52.068;6.968;2023-12-14T05:03:34;101279.50;;;5.05;100.00
3444;BME280;1736;52.068;6.968;2023-12-14T05:06:01;101278.03;;;5.00;100.00
3444;BME280;1736;52.068;6.968;2023-12-14T05:08:27;101273.09;;;5.11;100.00
3444;BME280;1736;52.068;6.968;2023-12-14T05:10:54;101289.50;;;4.99;100.00
3444;BME280;1736;52.068;6.968;2023-12-14T05:13:21;101278.91;;;5.00;100.00
3444;BME280;1736;52.068;6.968;2023-12-14T05:15:49;101266.19;;;4.91;100.00
3444;BME280;1736;52.068;6.968;2023-12-14T05:18:17;101266.38;;;4.88;100.00
3444;BME280;1736;52.068;6.968;2023-12-14T05:20:44;101265.91;;;4.97;100.00
3444;BME280;1736;52.068;6.968;2023-12-14T05:23:11;101269.38;;;4.98;100.00
3444;BME280;1736;52.068;6.968;2023-12-14T05:25:38;101273.53;;;5.02;100.00
3444;BME280;1736;52.068;6.968;2023-12-14T05:28:04;101275.47;;;4.98;100.00
3444;BME280;1736;52.068;6.968;2023-12-14T05:30:31;101277.50;;;4.93;100.00
3444;BME280;1736;52.068;6.968;2023-12-14T05:32:59;101287.53;;;5.02;100.00
3444;BME280;1736;52.068;6.968;2023-12-14T05:35:26;101288.72;;;4.97;100.00
3444;BME280;1736;52.068;6.968;2023-12-14T05:37:53;101290.50;;;4.96;100.00
3444;BME280;1736;52.068;6.968;2023-12-14T05:40:20;101295.66;;;4.98;100.00
3444;BME280;1736;52.068;6.968;2023-12-14T05:42:47;101307.19;;;4.95;100.00
3444;BME280;1736;52.068;6.968;2023-12-14T05:45:13;101305.44;;;4.96;100.00
3444;BME280;1736;52.068;6.968;2023-12-14T05:47:40;101313.16;;;4.99;100.00
3444;BME280;1736;52.068;6.968;2023-12-14T05:50:09;101324.16;;;5.07;100.00
3444;BME280;1736;52.068;6.968;2023-12-14T05:52:36;101317.50;;;5.00;100.00
3444;BME280;1736;52.068;6.968;2023-12-14T05:55:03;101329.09;;;4.96;100.00
3444;BME280;1736;52.068;6.968;2023-12-14T05:57:30;101336.06;;;4.97;100.00
3444;BME280;1736;52.068;6.968;2023-12-14T05:59:57;101336.06;;;4.97;100.00
3444;BME280;1736;52.068;6.968;2023-12-14T06:02:24;101329.38;;;4.90;100.00
3444;BME280;1736;52.068;6.968;2023-12-14T06:04:50;101342.38;;;4.93;100.00
3444;BME280;1736;52.068;6.968;2023-12-14T06:07:18;101356.00;;;5.01;100.00
3444;BME280;1736;52.068;6.968;2023-12-14T06:09:46;101353.22;;;5.04;100.00
3444;BME280;1736;52.068;6.968;2023-12-14T06:12:13;101374.50;;;5.16;100.00
3444;BME280;1736;52.068;6.968;2023-12-14T06:14:40;101374.13;;;5.07;100.00
3444;BME280;1736;52.068;6.968;2023-12-14T06:17:06;101378.53;;;5.06;100.00
3444;BME280;1736;52.068;6.968;2023-12-14T06:19:33;101370.84;;;5.02;100.00
3444;BME280;1736;52.068;6.968;2023-12-14T06:21:59;101379.00;;;4.97;100.00
3444;BME280;1736;52.068;6.968;2023-12-14T06:24:27;101402.28;;;5.05;100.00
3444;BME280;1736;52.068;6.968;2023-12-14T06:26:54;101403.69;;;5.12;100.00
3444;BME280;1736;52.068;6.968;2023-12-14T06:29:20;101395.19;;;5.07;100.00
3444;BME280;1736;52.068;6.968;2023-12-14T06:31:47;101422.72;;;5.17;100.00
3444;BME280;1736;52.068;6.968;2023-12-14T06:34:14;101435.84;;;5.00;100.00
3444;BME280;1736;52.068;6.968;2023-12-14T06:36:42;101434.84;;;5.02;100.00
3444;BME280;1736;52.068;6.968;2023-12-14T06:39:09;101440.97;;;5.03;100.00
3444;BME280;1736;52.068;6.968;2023-12-14T06:41:37;101436.06;;;4.95;100.00
3444;BME280;1736;52.068;6.968;2023-12-14T06:44:04;101452.72;;;5.13;100.00
3444;BME280;1736;52.068;6.968;2023-12-14T06:46:31;101449.00;;;5.00;100.00
3444;BME280;1736;52.068;6.968;2023-12-14T06:48:58;101444.69;;;4.99;100.00
3444;BME280;1736;52.068;6.968;2023-12-14T06:51:24;101447.44;;;4.96;100.00
3444;BME280;1736;52.068;6.968;2023-12-14T06:53:52;101452.38;;;4.85;100.00
3444;BME280;1736;52.068;6.968;2023-12-14T06:56:19;101464.31;;;4.92;100.00
3444;BME280;1736;52.068;6.968;2023-12-14T06:58:46;101469.69;;;4.89;100.00
3444;BME280;1736;52.068;6.968;2023-12-14T07:01:15;101467.22;;;4.86;100.00
3444;BME280;1736;52.068;6.968;2023-12-14T07:03:43;101476.66;;;4.90;100.00
3444;BME280;1736;52.068;6.968;2023-12-14T07:06:12;101478.53;;;4.88;100.00
3444;BME280;1736;52.068;6.968;2023-12-14T07:08:39;101481.34;;;4.83;100.00
3444;BME280;1736;52.068;6.968;2023-12-14T07:11:15;101479.81;;;4.79;100.00
3444;BME280;1736;52.068;6.968;2023-12-14T07:13:42;101482.78;;;4.90;100.00
3444;BME280;1736;52.068;6.968;2023-12-14T07:16:11;101497.56;;;4.93;100.00
3444;BME280;1736;52.068;6.968;2023-12-14T07:18:38;101501.25;;;4.89;100.00
3444;BME280;1736;52.068;6.968;2023-12-14T07:21:05;101506.53;;;4.89;100.00
3444;BME280;1736;52.068;6.968;2023-12-14T07:23:33;101510.53;;;4.79;100.00
3444;BME280;1736;52.068;6.968;2023-12-14T07:26:00;101515.63;;;4.82;100.00
3444;BME280;1736;52.068;6.968;2023-12-14T07:28:26;101520.47;;;4.72;100.00
3444;BME280;1736;52.068;6.968;2023-12-14T07:30:53;101524.50;;;4.79;100.00
3444;BME280;1736;52.068;6.968;2023-12-14T07:33:21;101523.66;;;4.79;100.00
3444;BME280;1736;52.068;6.968;2023-12-14T07:35:48;101534.31;;;4.76;100.00
3444;BME280;1736;52.068;6.968;2023-12-14T07:38:14;101527.06;;;4.81;100.00
3444;BME280;1736;52.068;6.968;2023-12-14T07:40:41;101528.75;;;4.82;100.00
3444;BME280;1736;52.068;6.968;2023-12-14T07:43:08;101526.13;;;4.82;100.00
3444;BME280;1736;52.068;6.968;2023-12-14T07:45:34;101535.75;;;4.83;100.00
3444;BME280;1736;52.068;6.968;2023-12-14T07:48:01;101536.66;;;4.82;100.00
3444;BME280;1736;52.068;6.968;2023-12-14T07:50:30;101533.75;;;4.88;100.00
3444;BME280;1736;52.068;6.968;2023-12-14T07:52:57;101539.66;;;4.74;100.00
3444;BME280;1736;52.068;6.968;2023-12-14T07:55:23;101547.84;;;4.87;100.00
3444;BME280;1736;52.068;6.968;2023-12-14T07:57:50;101559.56;;;4.80;100.00
3444;BME280;1736;52.068;6.968;2023-12-14T08:00:17;101567.00;;;4.89;100.00
3444;BME280;1736;52.068;6.968;2023-12-14T08:02:43;101570.28;;;4.75;100.00
3444;BME280;1736;52.068;6.968;2023-12-14T08:05:10;101569.31;;;4.78;100.00
3444;BME280;1736;52.068;6.968;2023-12-14T08:07:38;101572.19;;;4.72;100.00
3444;BME280;1736;52.068;6.968;2023-12-14T08:10:05;101580.22;;;4.87;100.00
3444;BME280;1736;52.068;6.968;2023-12-14T08:12:32;101580.47;;;4.83;100.00
3444;BME280;1736;52.068;6.968;2023-12-14T08:14:58;101584.97;;;4.79;100.00
3444;BME280;1736;52.068;6.968;2023-12-14T08:17:25;101608.59;;;4.81;100.00
3444;BME280;1736;52.068;6.968;2023-12-14T08:19:53;101613.28;;;4.74;100.00
3444;BME280;1736;52.068;6.968;2023-12-14T08:22:20;101623.66;;;4.77;100.00
3444;BME280;1736;52.068;6.968;2023-12-14T08:24:49;101636.56;;;4.82;100.00
3444;BME280;1736;52.068;6.968;2023-12-14T08:27:15;101636.25;;;4.89;100.00
3444;BME280;1736;52.068;6.968;2023-12-14T08:29:43;101639.88;;;4.87;100.00
3444;BME280;1736;52.068;6.968;2023-12-14T08:32:10;101634.03;;;4.80;100.00
3444;BME280;1736;52.068;6.968;2023-12-14T08:34:37;101645.28;;;4.84;100.00
3444;BME280;1736;52.068;6.968;2023-12-14T08:37:04;101645.81;;;4.72;100.00
3444;BME280;1736;52.068;6.968;2023-12-14T08:39:30;101639.84;;;4.68;100.00
3444;BME280;1736;52.068;6.968;2023-12-14T08:41:58;101648.22;;;4.96;100.00
3444;BME280;1736;52.068;6.968;2023-12-14T08:44:25;101648.66;;;4.86;100.00
3444;BME280;1736;52.068;6.968;2023-12-14T08:46:52;101645.81;;;4.72;100.00
3444;BME280;1736;52.068;6.968;2023-12-14T08:49:19;101646.81;;;4.69;100.00
3444;BME280;1736;52.068;6.968;2023-12-14T08:51:46;101644.25;;;4.68;100.00
3444;BME280;1736;52.068;6.968;2023-12-14T08:54:12;101656.63;;;4.66;100.00
3444;BME280;1736;52.068;6.968;2023-12-14T08:56:39;101652.78;;;4.73;100.00
3444;BME280;1736;52.068;6.968;2023-12-14T08:59:07;101662.16;;;4.78;100.00
3444;BME280;1736;52.068;6.968;2023-12-14T09:01:35;101663.56;;;4.87;100.00
3444;BME280;1736;52.068;6.968;2023-12-14T09:04:01;101665.44;;;4.83;100.00
3444;BME280;1736;52.068;6.968;2023-12-14T09:06:30;101665.44;;;4.83;100.00
3444;BME280;1736;52.068;6.968;2023-12-14T09:08:58;101662.63;;;4.88;100.00
3444;BME280;1736;52.068;6.968;2023-12-14T09:11:25;101661.44;;;4.95;100.00
3444;BME280;1736;52.068;6.968;2023-12-14T09:13:52;101658.59;;;4.79;100.00
3444;BME280;1736;52.068;6.968;2023-12-14T09:16:20;101665.44;;;4.83;100.00
3444;BME280;1736;52.068;6.968;2023-12-14T09:18:47;101659.31;;;4.64;100.00
3444;BME280;1736;52.068;6.968;2023-12-14T09:21:13;101657.91;;;4.76;100.00
3444;BME280;1736;52.068;6.968;2023-12-14T09:23:41;101656.34;;;4.72;100.00
3444;BME280;1736;52.068;6.968;2023-12-14T09:26:07;101647.19;;;4.80;100.00
3444;BME280;1736;52.068;6.968;2023-12-14T09:28:35;101661.75;;;4.87;100.00
3444;BME280;1736;52.068;6.968;2023-12-14T09:31:03;101661.03;;;4.84;100.00
3444;BME280;1736;52.068;6.968;2023-12-14T09:33:31;101661.81;;;4.86;100.00
3444;BME280;1736;52.068;6.968;2023-12-14T09:35:58;101668.81;;;4.87;100.00
3444;BME280;1736;52.068;6.968;2023-12-14T09:38:24;101660.59;;;4.74;100.00
3444;BME280;1736;52.068;6.968;2023-12-14T09:40:51;101665.41;;;4.65;100.00
3444;BME280;1736;52.068;6.968;2023-12-14T09:43:18;101675.66;;;4.71;100.00
3444;BME280;1736;52.068;6.968;2023-12-14T09:45:46;101674.59;;;4.75;100.00
3444;BME280;1736;52.068;6.968;2023-12-14T09:48:15;101683.00;;;4.83;100.00
3444;BME280;1736;52.068;6.968;2023-12-14T09:50:44;101700.63;;;4.81;100.00
3444;BME280;1736;52.068;6.968;2023-12-14T09:53:12;101703.41;;;4.78;100.00
3444;BME280;1736;52.068;6.968;2023-12-14T09:55:39;101693.66;;;4.80;100.00
3444;BME280;1736;52.068;6.968;2023-12-14T09:58:06;101699.69;;;4.82;100.00
3444;BME280;1736;52.068;6.968;2023-12-14T10:00:36;101701.13;;;4.89;100.00
3444;BME280;1736;52.068;6.968;2023-12-14T10:03:24;101706.63;;;4.84;100.00
3444;BME280;1736;52.068;6.968;2023-12-14T10:05:54;101716.16;;;4.87;100.00
3444;BME280;1736;52.068;6.968;2023-12-14T10:08:22;101711.34;;;4.96;100.00
3444;BME280;1736;52.068;6.968;2023-12-14T10:10:51;101712.19;;;4.97;100.00
3444;BME280;1736;52.068;6.968;2023-12-14T10:13:19;101725.63;;;4.91;100.00
3444;BME280;1736;52.068;6.968;2023-12-14T10:15:47;101718.50;;;4.93;100.00
3444;BME280;1736;52.068;6.968;2023-12-14T10:18:21;101723.75;;;4.93;100.00
3444;BME280;1736;52.068;6.968;2023-12-14T10:20:49;101722.19;;;4.89;100.00
3444;BME280;1736;52.068;6.968;2023-12-14T10:23:18;101724.03;;;4.87;100.00
3444;BME280;1736;52.068;6.968;2023-12-14T10:25:45;101734.63;;;4.85;100.00
3444;BME280;1736;52.068;6.968;2023-12-14T10:28:12;101750.84;;;4.95;100.00
3444;BME280;1736;52.068;6.968;2023-12-14T10:30:40;101749.00;;;4.97;100.00
3444;BME280;1736;52.068;6.968;2023-12-14T10:33:07;101749.13;;;4.94;100.00
3444;BME280;1736;52.068;6.968;2023-12-14T10:35:34;101758.06;;;5.10;100.00
3444;BME280;1736;52.068;6.968;2023-12-14T10:38:02;101758.22;;;5.07;100.00
3444;BME280;1736;52.068;6.968;2023-12-14T10:40:31;101763.72;;;5.01;100.00
3444;BME280;1736;52.068;6.968;2023-12-14T10:42:59;101756.47;;;5.06;100.00
3444;BME280;1736;52.068;6.968;2023-12-14T10:45:29;101754.25;;;4.97;100.00
3444;BME280;1736;52.068;6.968;2023-12-14T10:47:57;101760.69;;;4.90;100.00
3444;BME280;1736;52.068;6.968;2023-12-14T10:50:25;101757.69;;;4.99;100.00
3444;BME280;1736;52.068;6.968;2023-12-14T10:52:52;101755.78;;;5.02;100.00
3444;BME280;1736;52.068;6.968;2023-12-14T10:55:23;101754.38;;;5.14;100.00
3444;BME280;1736;52.068;6.968;2023-12-14T10:57:53;101754.00;;;5.03;100.00
3444;BME280;1736;52.068;6.968;2023-12-14T11:00:21;101751.63;;;4.97;100.00
3444;BME280;1736;52.068;6.968;2023-12-14T11:02:47;101751.50;;;5.00;100.00
3444;BME280;1736;52.068;6.968;2023-12-14T11:05:16;101755.53;;;5.08;100.00
3444;BME280;1736;52.068;6.968;2023-12-14T11:07:53;101764.00;;;5.15;100.00
3444;BME280;1736;52.068;6.968;2023-12-14T11:10:22;101776.56;;;5.08;100.00
3444;BME280;1736;52.068;6.968;2023-12-14T11:13:00;101782.47;;;5.13;100.00
3444;BME280;1736;52.068;6.968;2023-12-14T11:15:28;101779.91;;;5.12;100.00
3444;BME280;1736;52.068;6.968;2023-12-14T11:18:24;101785.09;;;5.13;100.00
3444;BME280;1736;52.068;6.968;2023-12-14T11:20:53;101777.66;;;5.23;100.00
3444;BME280;1736;52.068;6.968;2023-12-14T11:23:29;101780.44;;;5.20;100.00
3444;BME280;1736;52.068;6.968;2023-12-14T11:25:59;101794.16;;;5.26;100.00
3444;BME280;1736;52.068;6.968;2023-12-14T11:28:30;101788.25;;;5.21;100.00
3444;BME280;1736;52.068;6.968;2023-12-14T11:30:56;101801.19;;;5.26;100.00
3444;BME280;1736;52.068;6.968;2023-12-14T11:33:23;101788.41;;;5.37;100.00
3444;BME280;1736;52.068;6.968;2023-12-14T11:35:50;101774.50;;;5.35;100.00
3444;BME280;1736;52.068;6.968;2023-12-14T11:38:18;101785.00;;;5.35;98.95
3444;BME280;1736;52.068;6.968;2023-12-14T11:40:47;101776.59;;;5.27;98.94
3444;BME280;1736;52.068;6.968;2023-12-14T11:43:15;101783.16;;;5.37;98.54
3444;BME280;1736;52.068;6.968;2023-12-14T11:45:43;101779.59;;;5.38;98.42
3444;BME280;1736;52.068;6.968;2023-12-14T11:48:12;101773.69;;;5.33;98.79
3444;BME280;1736;52.068;6.968;2023-12-14T11:50:40;101776.75;;;5.42;98.33
3444;BME280;1736;52.068;6.968;2023-12-14T11:53:08;101780.97;;;5.46;97.87
3444;BME280;1736;52.068;6.968;2023-12-14T11:55:38;101784.31;;;5.50;97.67
3444;BME280;1736;52.068;6.968;2023-12-14T11:58:05;101781.97;;;5.44;97.07
3444;BME280;1736;52.068;6.968;2023-12-14T12:00:34;101778.03;;;5.52;96.88
3444;BME280;1736;52.068;6.968;2023-12-14T12:03:11;101791.13;;;5.54;97.02
3444;BME280;1736;52.068;6.968;2023-12-14T12:05:39;101787.38;;;5.59;96.43
3444;BME280;1736;52.068;6.968;2023-12-14T12:08:07;101787.56;;;5.55;96.83
3444;BME280;1736;52.068;6.968;2023-12-14T12:10:34;101796.41;;;5.54;96.23
3444;BME280;1736;52.068;6.968;2023-12-14T12:13:02;101801.53;;;5.57;96.03
3444;BME280;1736;52.068;6.968;2023-12-14T12:15:30;101791.00;;;5.57;95.55
3444;BME280;1736;52.068;6.968;2023-12-14T12:17:57;101797.34;;;5.53;95.19
3444;BME280;1736;52.068;6.968;2023-12-14T12:20:25;101806.50;;;5.44;96.33
3444;BME280;1736;52.068;6.968;2023-12-14T12:22:52;101798.19;;;5.35;96.44
3444;BME280;1736;52.068;6.968;2023-12-14T12:25:19;101811.47;;;5.32;97.71
3444;BME280;1736;52.068;6.968;2023-12-14T12:27:46;101809.22;;;5.43;97.96
3444;BME280;1736;52.068;6.968;2023-12-14T12:30:13;101814.31;;;5.46;98.67
3444;BME280;1736;52.068;6.968;2023-12-14T12:32:40;101816.25;;;5.42;99.24
3444;BME280;1736;52.068;6.968;2023-12-14T12:35:07;101816.94;;;5.46;100.00
3444;BME280;1736;52.068;6.968;2023-12-14T12:37:35;101815.44;;;5.40;100.00
3444;BME280;1736;52.068;6.968;2023-12-14T12:40:02;101816.19;;;5.44;100.00
3444;BME280;1736;52.068;6.968;2023-12-14T12:42:29;101818.06;;;5.40;99.62
3444;BME280;1736;52.068;6.968;2023-12-14T12:44:56;101818.44;;;5.33;99.40
3444;BME280;1736;52.068;6.968;2023-12-14T12:47:23;101809.91;;;5.46;98.32
3444;BME280;1736;52.068;6.968;2023-12-14T12:49:50;101816.09;;;5.27;98.24
3444;BME280;1736;52.068;6.968;2023-12-14T12:52:16;101825.94;;;5.22;98.84
3444;BME280;1736;52.068;6.968;2023-12-14T12:54:44;101823.19;;;5.25;99.62
3444;BME280;1736;52.068;6.968;2023-12-14T12:57:11;101839.59;;;5.30;100.00
3444;BME280;1736;52.068;6.968;2023-12-14T12:59:38;101844.50;;;5.19;100.00
3444;BME280;1736;52.068;6.968;2023-12-14T13:02:05;101858.31;;;5.24;100.00
3444;BME280;1736;52.068;6.968;2023-12-14T13:04:31;101994.50;;;5.19;100.00
3444;BME280;1736;52.068;6.968;2023-12-14T13:06:58;101874.88;;;5.26;100.00
3444;BME280;1736;52.068;6.968;2023-12-14T13:09:30;101873.44;;;5.19;100.00
3444;BME280;1736;52.068;6.968;2023-12-14T13:11:58;101875.88;;;5.23;100.00
3444;BME280;1736;52.068;6.968;2023-12-14T13:14:24;101885.16;;;5.32;100.00